sensor_id;sensor_type;location;lat;lon;timestamp;pressure;altitude;pressure_sealevel;temperature;humidity
36502;BME280;25393;46.108;3.390;2023-02-17T00:03:52;99245.97;;;8.69;73.00
36502;BME280;25393;46.108;3.390;2023-02-17T00:06:22;99245.75;;;8.81;72.39
36502;BME280;25393;46.108;3.390;2023-02-17T00:08:49;99243.59;;;8.86;72.47
36502;BME280;25393;46.108;3.390;2023-02-17T00:11:16;99242.53;;;8.98;72.20
36502;BME280;25393;46.108;3.390;2023-02-17T00:13:44;99235.31;;;9.00;71.71
36502;BME280;25393;46.108;3.390;2023-02-17T00:16:17;99245.00;;;9.11;71.12
36502;BME280;25393;46.108;3.390;2023-02-17T00:18:45;99235.94;;;9.14;70.25
36502;BME280;25393;46.108;3.390;2023-02-17T00:21:15;99246.56;;;9.23;70.19
36502;BME280;25393;46.108;3.390;2023-02-17T00:23:42;99237.41;;;9.27;70.07
36502;BME280;25393;46.108;3.390;2023-02-17T00:26:08;99237.97;;;9.31;70.00
36502;BME280;25393;46.108;3.390;2023-02-17T00:28:35;99245.25;;;9.38;69.25
36502;BME280;25393;46.108;3.390;2023-02-17T00:31:11;99230.91;;;9.41;67.42
36502;BME280;25393;46.108;3.390;2023-02-17T00:33:39;99237.09;;;9.51;66.91
36502;BME280;25393;46.108;3.390;2023-02-17T00:36:08;99245.22;;;9.59;68.76
36502;BME280;25393;46.108;3.390;2023-02-17T00:38:36;99240.19;;;9.56;68.51
36502;BME280;25393;46.108;3.390;2023-02-17T00:41:02;99235.22;;;9.72;62.76
36502;BME280;25393;46.108;3.390;2023-02-17T00:43:31;99250.16;;;9.83;62.35
36502;BME280;25393;46.108;3.390;2023-02-17T00:45:58;99255.16;;;9.76;61.28
36502;BME280;25393;46.108;3.390;2023-02-17T00:48:25;99252.13;;;9.81;60.56
36502;BME280;25393;46.108;3.390;2023-02-17T00:50:52;99244.47;;;9.57;61.18
36502;BME280;25393;46.108;3.390;2023-02-17T00:53:18;99239.50;;;9.33;62.14
36502;BME280;25393;46.108;3.390;2023-02-17T00:55:45;99242.16;;;9.33;62.40
36502;BME280;25393;46.108;3.390;2023-02-17T00:58:12;99250.25;;;9.32;62.50
36502;BME280;25393;46.108;3.390;2023-02-17T01:00:39;99229.47;;;9.27;62.79
36502;BME280;25393;46.108;3.390;2023-02-17T01:03:06;99233.31;;;9.14;64.30
36502;BME280;25393;46.108;3.390;2023-02-17T01:05:33;99230.63;;;9.04;65.85
36502;BME280;25393;46.108;3.390;2023-02-17T01:08:00;99232.22;;;8.95;67.10
36502;BME280;25393;46.108;3.390;2023-02-17T01:10:26;99238.53;;;8.83;67.61
36502;BME280;25393;46.108;3.390;2023-02-17T01:12:53;99236.19;;;8.69;68.33
36502;BME280;25393;46.108;3.390;2023-02-17T01:15:19;99221.44;;;8.67;68.54
36502;BME280;25393;46.108;3.390;2023-02-17T01:17:46;99236.66;;;8.74;68.73
36502;BME280;25393;46.108;3.390;2023-02-17T01:20:13;99237.19;;;8.68;68.67
36502;BME280;25393;46.108;3.390;2023-02-17T01:22:40;99249.56;;;8.68;69.18
36502;BME280;25393;46.108;3.390;2023-02-17T01:25:09;99245.59;;;8.62;69.37
36502;BME280;25393;46.108;3.390;2023-02-17T01:27:39;99239.03;;;8.57;69.70
36502;BME280;25393;46.108;3.390;2023-02-17T01:30:06;99250.97;;;8.51;70.25
36502;BME280;25393;46.108;3.390;2023-02-17T01:32:35;99253.03;;;8.47;70.18
36502;BME280;25393;46.108;3.390;2023-02-17T01:35:05;99256.31;;;8.61;69.67
36502;BME280;25393;46.108;3.390;2023-02-17T01:37:32;99242.78;;;8.54;69.66
36502;BME280;25393;46.108;3.390;2023-02-17T01:39:59;99236.31;;;8.47;69.17
36502;BME280;25393;46.108;3.390;2023-02-17T01:42:25;99250.88;;;8.62;68.79
36502;BME280;25393;46.108;3.390;2023-02-17T01:48:04;99255.50;;;8.81;68.28
36502;BME280;25393;46.108;3.390;2023-02-17T01:50:35;99246.34;;;8.85;67.77
36502;BME280;25393;46.108;3.390;2023-02-17T01:53:04;99248.53;;;8.80;67.80
36502;BME280;25393;46.108;3.390;2023-02-17T01:55:33;99258.47;;;8.87;67.89
36502;BME280;25393;46.108;3.390;2023-02-17T01:58:02;99250.78;;;8.84;67.71
36502;BME280;25393;46.108;3.390;2023-02-17T02:00:31;99237.94;;;8.80;67.70
36502;BME280;25393;46.108;3.390;2023-02-17T02:02:59;99244.22;;;8.79;67.70
36502;BME280;25393;46.108;3.390;2023-02-17T02:05:27;99235.72;;;8.75;67.58
36502;BME280;25393;46.108;3.390;2023-02-17T02:07:55;99236.56;;;8.76;67.64
36502;BME280;25393;46.108;3.390;2023-02-17T02:10:23;99227.06;;;8.73;67.54
36502;BME280;25393;46.108;3.390;2023-02-17T02:12:50;99224.81;;;8.69;67.37
36502;BME280;25393;46.108;3.390;2023-02-17T02:15:19;99211.66;;;8.58;67.83
36502;BME280;25393;46.108;3.390;2023-02-17T02:18:11;99227.38;;;8.59;68.11
36502;BME280;25393;46.108;3.390;2023-02-17T02:29:57;99221.66;;;8.75;64.46
36502;BME280;25393;46.108;3.390;2023-02-17T02:32:47;99229.84;;;8.72;64.37
36502;BME280;25393;46.108;3.390;2023-02-17T02:40:46;99225.78;;;8.68;65.41
36502;BME280;25393;46.108;3.390;2023-02-17T02:43:15;99225.13;;;8.75;65.95
36502;BME280;25393;46.108;3.390;2023-02-17T02:45:45;99225.50;;;8.91;64.84
36502;BME280;25393;46.108;3.390;2023-02-17T02:48:14;99226.16;;;8.84;62.94
36502;BME280;25393;46.108;3.390;2023-02-17T02:52:04;99225.72;;;8.79;61.29
36502;BME280;25393;46.108;3.390;2023-02-17T02:59:59;99229.75;;;7.98;61.34
36502;BME280;25393;46.108;3.390;2023-02-17T03:02:40;99230.41;;;7.58;62.84
36502;BME280;25393;46.108;3.390;2023-02-17T03:07:49;99229.94;;;7.30;64.78
36502;BME280;25393;46.108;3.390;2023-02-17T03:10:20;99227.75;;;7.46;64.70
36502;BME280;25393;46.108;3.390;2023-02-17T03:12:47;99226.09;;;7.34;64.59
36502;BME280;25393;46.108;3.390;2023-02-17T03:15:28;99226.94;;;7.35;65.02
36502;BME280;25393;46.108;3.390;2023-02-17T03:17:57;99220.09;;;7.43;65.04
36502;BME280;25393;46.108;3.390;2023-02-17T03:20:33;99219.63;;;7.38;64.42
36502;BME280;25393;46.108;3.390;2023-02-17T03:23:02;99231.59;;;7.42;65.42
36502;BME280;25393;46.108;3.390;2023-02-17T03:25:29;99224.66;;;7.52;65.07
36502;BME280;25393;46.108;3.390;2023-02-17T03:27:56;99218.91;;;7.47;65.81
36502;BME280;25393;46.108;3.390;2023-02-17T03:30:22;99212.41;;;7.51;65.17
36502;BME280;25393;46.108;3.390;2023-02-17T03:32:49;99221.19;;;7.52;65.13
36502;BME280;25393;46.108;3.390;2023-02-17T03:35:16;99215.75;;;7.76;64.69
36502;BME280;25393;46.108;3.390;2023-02-17T03:37:42;99215.38;;;7.80;63.67
36502;BME280;25393;46.108;3.390;2023-02-17T03:40:11;99216.59;;;7.76;64.17
36502;BME280;25393;46.108;3.390;2023-02-17T03:42:37;99207.31;;;7.82;63.87
36502;BME280;25393;46.108;3.390;2023-02-17T03:45:04;99220.59;;;8.02;63.02
36502;BME280;25393;46.108;3.390;2023-02-17T03:47:31;99219.38;;;8.07;63.26
36502;BME280;25393;46.108;3.390;2023-02-17T03:49:57;99220.19;;;8.18;62.81
36502;BME280;25393;46.108;3.390;2023-02-17T03:52:24;99219.69;;;8.24;63.05
36502;BME280;25393;46.108;3.390;2023-02-17T03:54:50;99210.44;;;7.87;63.56
36502;BME280;25393;46.108;3.390;2023-02-17T03:57:17;99215.50;;;7.68;64.04
36502;BME280;25393;46.108;3.390;2023-02-17T03:59:47;99222.47;;;7.69;64.47
36502;BME280;25393;46.108;3.390;2023-02-17T04:02:13;99221.78;;;7.44;65.07
36502;BME280;25393;46.108;3.390;2023-02-17T04:04:42;99230.41;;;7.46;65.17
36502;BME280;25393;46.108;3.390;2023-02-17T04:07:09;99222.75;;;7.21;66.37
36502;BME280;25393;46.108;3.390;2023-02-17T04:09:35;99237.94;;;7.29;66.86
36502;BME280;25393;46.108;3.390;2023-02-17T04:12:02;99238.56;;;7.21;67.47
36502;BME280;25393;46.108;3.390;2023-02-17T04:14:28;99241.31;;;7.20;67.06
36502;BME280;25393;46.108;3.390;2023-02-17T04:16:55;99237.59;;;7.44;66.32
36502;BME280;25393;46.108;3.390;2023-02-17T04:19:21;99229.94;;;7.52;65.63
36502;BME280;25393;46.108;3.390;2023-02-17T04:21:48;99240.47;;;7.64;65.23
36502;BME280;25393;46.108;3.390;2023-02-17T04:24:14;99241.44;;;7.63;65.54
36502;BME280;25393;46.108;3.390;2023-02-17T04:26:43;99231.22;;;7.69;65.77
36502;BME280;25393;46.108;3.390;2023-02-17T04:29:10;99234.13;;;7.66;65.68
36502;BME280;25393;46.108;3.390;2023-02-17T04:31:36;99239.00;;;7.82;65.64
36502;BME280;25393;46.108;3.390;2023-02-17T04:34:03;99224.88;;;7.72;65.93
36502;BME280;25393;46.108;3.390;2023-02-17T04:36:30;99239.84;;;7.82;65.69
36502;BME280;25393;46.108;3.390;2023-02-17T04:38:56;99239.13;;;7.80;66.16
36502;BME280;25393;46.108;3.390;2023-02-17T04:41:23;99232.16;;;7.79;65.26
36502;BME280;25393;46.108;3.390;2023-02-17T04:43:49;99231.22;;;7.80;66.21
36502;BME280;25393;46.108;3.390;2023-02-17T04:46:16;99238.63;;;7.86;65.62
36502;BME280;25393;46.108;3.390;2023-02-17T04:48:45;99233.47;;;7.85;66.24
36502;BME280;25393;46.108;3.390;2023-02-17T04:51:11;99227.13;;;7.87;65.82
36502;BME280;25393;46.108;3.390;2023-02-17T04:53:38;99235.97;;;8.09;65.89
36502;BME280;25393;46.108;3.390;2023-02-17T04:56:05;99238.19;;;8.13;65.65
36502;BME280;25393;46.108;3.390;2023-02-17T04:58:32;99237.31;;;8.24;64.92
36502;BME280;25393;46.108;3.390;2023-02-17T05:00:58;99252.47;;;8.33;64.85
36502;BME280;25393;46.108;3.390;2023-02-17T05:03:26;99233.28;;;8.20;65.18
36502;BME280;25393;46.108;3.390;2023-02-17T05:05:52;99237.25;;;8.14;65.41
36502;BME280;25393;46.108;3.390;2023-02-17T05:08:20;99237.59;;;8.21;65.63
36502;BME280;25393;46.108;3.390;2023-02-17T05:10:49;99243.84;;;8.20;65.16
36502;BME280;25393;46.108;3.390;2023-02-17T05:13:17;99225.47;;;8.18;64.82
36502;BME280;25393;46.108;3.390;2023-02-17T05:15:46;99246.09;;;8.35;64.79
36502;BME280;25393;46.108;3.390;2023-02-17T05:18:13;99239.00;;;8.36;65.24
36502;BME280;25393;46.108;3.390;2023-02-17T05:20:39;99233.97;;;8.33;65.40
36502;BME280;25393;46.108;3.390;2023-02-17T05:23:06;99232.31;;;8.21;65.55
36502;BME280;25393;46.108;3.390;2023-02-17T05:25:32;99230.75;;;8.18;65.67
36502;BME280;25393;46.108;3.390;2023-02-17T05:27:59;99230.66;;;8.20;65.36
36502;BME280;25393;46.108;3.390;2023-02-17T05:30:25;99206.16;;;8.18;65.33
36502;BME280;25393;46.108;3.390;2023-02-17T05:32:54;99226.00;;;8.44;64.30
36502;BME280;25393;46.108;3.390;2023-02-17T05:35:21;99227.81;;;8.43;64.17
36502;BME280;25393;46.108;3.390;2023-02-17T05:37:48;99226.06;;;8.33;64.65
36502;BME280;25393;46.108;3.390;2023-02-17T05:40:18;99222.66;;;8.42;64.02
36502;BME280;25393;46.108;3.390;2023-02-17T05:42:46;99217.56;;;8.50;63.59
36502;BME280;25393;46.108;3.390;2023-02-17T05:45:13;99227.09;;;8.41;64.43
36502;BME280;25393;46.108;3.390;2023-02-17T05:47:39;99233.22;;;8.42;64.48
36502;BME280;25393;46.108;3.390;2023-02-17T05:50:06;99230.34;;;8.34;64.52
36502;BME280;25393;46.108;3.390;2023-02-17T05:52:33;99236.00;;;8.40;64.36
36502;BME280;25393;46.108;3.390;2023-02-17T05:54:59;99236.91;;;8.50;63.77
36502;BME280;25393;46.108;3.390;2023-02-17T05:57:26;99239.66;;;8.49;63.92
36502;BME280;25393;46.108;3.390;2023-02-17T05:59:52;99229.94;;;8.49;64.11
36502;BME280;25393;46.108;3.390;2023-02-17T06:02:22;99232.78;;;8.58;63.93
36502;BME280;25393;46.108;3.390;2023-02-17T06:04:48;99233.06;;;8.75;62.90
36502;BME280;25393;46.108;3.390;2023-02-17T06:07:17;99227.78;;;8.75;63.20
36502;BME280;25393;46.108;3.390;2023-02-17T06:09:47;99216.78;;;8.80;63.12
36502;BME280;25393;46.108;3.390;2023-02-17T06:12:14;99232.91;;;8.77;63.48
36502;BME280;25393;46.108;3.390;2023-02-17T06:14:40;99235.38;;;8.69;64.44
36502;BME280;25393;46.108;3.390;2023-02-17T06:17:07;99228.09;;;8.61;64.28
36502;BME280;25393;46.108;3.390;2023-02-17T06:19:33;99238.09;;;8.58;64.57
36502;BME280;25393;46.108;3.390;2023-02-17T06:22:00;99236.19;;;8.48;65.35
36502;BME280;25393;46.108;3.390;2023-02-17T06:24:26;99243.09;;;8.40;65.20
36502;BME280;25393;46.108;3.390;2023-02-17T06:26:53;99237.22;;;8.36;65.21
36502;BME280;25393;46.108;3.390;2023-02-17T06:29:23;99246.13;;;8.56;64.34
36502;BME280;25393;46.108;3.390;2023-02-17T06:31:55;99231.13;;;8.57;63.97
36502;BME280;25393;46.108;3.390;2023-02-17T06:34:22;99243.06;;;8.72;63.78
36502;BME280;25393;46.108;3.390;2023-02-17T06:36:48;99245.97;;;8.69;63.61
36502;BME280;25393;46.108;3.390;2023-02-17T06:39:18;99240.00;;;8.56;64.13
36502;BME280;25393;46.108;3.390;2023-02-17T06:41:47;99240.56;;;8.59;63.65
36502;BME280;25393;46.108;3.390;2023-02-17T06:44:13;99234.13;;;8.52;64.28
36502;BME280;25393;46.108;3.390;2023-02-17T06:46:40;99233.38;;;8.61;63.69
36502;BME280;25393;46.108;3.390;2023-02-17T06:49:06;99256.66;;;8.67;63.92
36502;BME280;25393;46.108;3.390;2023-02-17T06:51:33;99255.59;;;8.59;63.60
36502;BME280;25393;46.108;3.390;2023-02-17T06:53:59;99269.91;;;8.56;64.37
36502;BME280;25393;46.108;3.390;2023-02-17T06:56:26;99265.72;;;8.53;64.66
36502;BME280;25393;46.108;3.390;2023-02-17T06:58:52;99272.09;;;8.51;65.42
36502;BME280;25393;46.108;3.390;2023-02-17T07:01:24;99273.56;;;8.76;64.10
36502;BME280;25393;46.108;3.390;2023-02-17T07:03:54;99278.13;;;8.74;64.07
36502;BME280;25393;46.108;3.390;2023-02-17T07:06:22;99270.22;;;8.63;64.76
36502;BME280;25393;46.108;3.390;2023-02-17T07:08:52;99263.88;;;8.65;64.57
36502;BME280;25393;46.108;3.390;2023-02-17T07:11:19;99284.31;;;8.84;64.41
36502;BME280;25393;46.108;3.390;2023-02-17T07:13:47;99270.84;;;8.87;66.22
36502;BME280;25393;46.108;3.390;2023-02-17T07:16:14;99283.69;;;9.12;63.80
36502;BME280;25393;46.108;3.390;2023-02-17T07:18:41;99284.91;;;9.08;62.85
36502;BME280;25393;46.108;3.390;2023-02-17T07:21:08;99295.16;;;9.01;62.78
36502;BME280;25393;46.108;3.390;2023-02-17T07:23:35;99307.16;;;9.06;63.60
36502;BME280;25393;46.108;3.390;2023-02-17T07:26:04;99313.66;;;9.01;63.52
36502;BME280;25393;46.108;3.390;2023-02-17T07:28:32;99304.91;;;9.01;63.33
36502;BME280;25393;46.108;3.390;2023-02-17T07:31:07;99311.28;;;8.98;63.32
36502;BME280;25393;46.108;3.390;2023-02-17T07:33:34;99305.31;;;8.96;63.38
36502;BME280;25393;46.108;3.390;2023-02-17T07:36:05;99316.72;;;8.97;63.62
36502;BME280;25393;46.108;3.390;2023-02-17T07:38:33;99306.38;;;8.94;63.06
36502;BME280;25393;46.108;3.390;2023-02-17T07:41:19;99318.84;;;9.03;63.29
36502;BME280;25393;46.108;3.390;2023-02-17T07:43:48;99309.09;;;9.03;63.39
36502;BME280;25393;46.108;3.390;2023-02-17T07:46:16;99295.41;;;9.19;61.97
36502;BME280;25393;46.108;3.390;2023-02-17T07:48:44;99314.00;;;9.29;62.11
36502;BME280;25393;46.108;3.390;2023-02-17T07:51:17;99307.09;;;9.37;60.92
36502;BME280;25393;46.108;3.390;2023-02-17T07:53:44;99309.34;;;9.42;60.83
36502;BME280;25393;46.108;3.390;2023-02-17T07:56:13;99320.94;;;9.50;60.51
36502;BME280;25393;46.108;3.390;2023-02-17T07:58:42;99327.22;;;9.49;60.62
36502;BME280;25393;46.108;3.390;2023-02-17T08:01:11;99319.50;;;9.46;60.71
36502;BME280;25393;46.108;3.390;2023-02-17T08:03:38;99326.97;;;9.52;60.51
36502;BME280;25393;46.108;3.390;2023-02-17T08:06:13;99325.00;;;9.54;59.84
36502;BME280;25393;46.108;3.390;2023-02-17T08:08:40;99309.28;;;9.32;59.81
36502;BME280;25393;46.108;3.390;2023-02-17T08:11:43;99319.63;;;9.35;59.67
36502;BME280;25393;46.108;3.390;2023-02-17T08:14:29;99289.38;;;9.08;59.92
36502;BME280;25393;46.108;3.390;2023-02-17T08:16:56;99313.44;;;9.25;60.56
36502;BME280;25393;46.108;3.390;2023-02-17T08:19:24;99315.56;;;9.11;60.73
36502;BME280;25393;46.108;3.390;2023-02-17T08:21:55;99332.38;;;9.30;60.84
36502;BME280;25393;46.108;3.390;2023-02-17T08:24:21;99322.38;;;9.34;60.77
36502;BME280;25393;46.108;3.390;2023-02-17T08:26:52;99326.44;;;9.38;60.72
36502;BME280;25393;46.108;3.390;2023-02-17T08:29:19;99332.13;;;9.33;60.56
36502;BME280;25393;46.108;3.390;2023-02-17T08:31:52;99306.19;;;9.27;60.55
36502;BME280;25393;46.108;3.390;2023-02-17T08:34:19;99331.34;;;9.42;60.50
36502;BME280;25393;46.108;3.390;2023-02-17T08:36:46;99320.69;;;9.33;60.96
36502;BME280;25393;46.108;3.390;2023-02-17T08:39:15;99317.22;;;9.32;60.88
36502;BME280;25393;46.108;3.390;2023-02-17T08:41:43;99337.81;;;9.49;61.16
36502;BME280;25393;46.108;3.390;2023-02-17T08:44:14;99332.38;;;9.51;60.80
36502;BME280;25393;46.108;3.390;2023-02-17T08:46:42;99336.63;;;9.63;60.84
36502;BME280;25393;46.108;3.390;2023-02-17T08:49:10;99343.97;;;9.90;60.04
36502;BME280;25393;46.108;3.390;2023-02-17T08:51:36;99344.59;;;10.03;58.99
36502;BME280;25393;46.108;3.390;2023-02-17T08:54:05;99344.53;;;10.14;58.69
36502;BME280;25393;46.108;3.390;2023-02-17T08:56:33;99347.28;;;10.13;59.08
36502;BME280;25393;46.108;3.390;2023-02-17T08:59:00;99339.13;;;10.25;58.75
36502;BME280;25393;46.108;3.390;2023-02-17T09:01:26;99343.72;;;10.23;58.87
36502;BME280;25393;46.108;3.390;2023-02-17T09:03:55;99341.75;;;10.25;58.67
36502;BME280;25393;46.108;3.390;2023-02-17T09:06:22;99354.91;;;10.27;58.64
36502;BME280;25393;46.108;3.390;2023-02-17T09:08:53;99343.06;;;10.40;57.88
36502;BME280;25393;46.108;3.390;2023-02-17T09:11:20;99346.97;;;10.56;58.16
36502;BME280;25393;46.108;3.390;2023-02-17T09:13:47;99330.53;;;10.62;57.56
36502;BME280;25393;46.108;3.390;2023-02-17T09:16:14;99350.66;;;10.83;57.17
36502;BME280;25393;46.108;3.390;2023-02-17T09:18:40;99342.84;;;10.72;57.17
36502;BME280;25393;46.108;3.390;2023-02-17T09:21:09;99359.03;;;10.88;57.14
36502;BME280;25393;46.108;3.390;2023-02-17T09:23:36;99357.38;;;10.97;56.46
36502;BME280;25393;46.108;3.390;2023-02-17T09:26:05;99353.72;;;10.98;56.56
36502;BME280;25393;46.108;3.390;2023-02-17T09:28:33;99355.84;;;11.04;55.98
36502;BME280;25393;46.108;3.390;2023-02-17T09:31:24;99356.09;;;11.11;56.03
36502;BME280;25393;46.108;3.390;2023-02-17T09:33:51;99331.78;;;11.06;56.67
36502;BME280;25393;46.108;3.390;2023-02-17T09:36:26;99360.97;;;11.25;56.11
36502;BME280;25393;46.108;3.390;2023-02-17T09:38:54;99351.06;;;11.17;55.32
36502;BME280;25393;46.108;3.390;2023-02-17T09:41:22;99352.19;;;11.24;55.55
36502;BME280;25393;46.108;3.390;2023-02-17T09:43:54;99358.44;;;11.42;55.20
36502;BME280;25393;46.108;3.390;2023-02-17T09:46:34;99360.00;;;11.35;54.98
36502;BME280;25393;46.108;3.390;2023-02-17T09:49:14;99372.13;;;11.38;54.96
36502;BME280;25393;46.108;3.390;2023-02-17T09:51:50;99367.66;;;11.38;55.28
36502;BME280;25393;46.108;3.390;2023-02-17T09:54:40;99373.09;;;11.56;54.82
36502;BME280;25393;46.108;3.390;2023-02-17T09:57:13;99364.25;;;11.65;54.76
36502;BME280;25393;46.108;3.390;2023-02-17T09:59:52;99374.34;;;11.71;54.44
36502;BME280;25393;46.108;3.390;2023-02-17T10:02:37;99377.34;;;11.95;53.71
36502;BME280;25393;46.108;3.390;2023-02-17T10:05:07;99361.84;;;11.91;54.31
36502;BME280;25393;46.108;3.390;2023-02-17T10:07:47;99377.97;;;12.07;53.65
36502;BME280;25393;46.108;3.390;2023-02-17T10:10:21;99375.91;;;12.01;53.55
36502;BME280;25393;46.108;3.390;2023-02-17T10:12:53;99364.44;;;12.00;53.73
36502;BME280;25393;46.108;3.390;2023-02-17T10:15:24;99372.94;;;12.14;53.24
36502;BME280;25393;46.108;3.390;2023-02-17T10:18:11;99382.03;;;12.11;53.72
36502;BME280;25393;46.108;3.390;2023-02-17T10:23:23;99368.53;;;11.95;54.05
36502;BME280;25393;46.108;3.390;2023-02-17T10:26:12;99372.88;;;11.96;54.27
36502;BME280;25393;46.108;3.390;2023-02-17T10:28:57;99388.91;;;12.04;55.00
36502;BME280;25393;46.108;3.390;2023-02-17T10:31:45;99379.91;;;12.15;54.76
36502;BME280;25393;46.108;3.390;2023-02-17T10:37:27;99387.28;;;12.30;54.57
36502;BME280;25393;46.108;3.390;2023-02-17T10:39:56;99388.25;;;12.29;54.51
36502;BME280;25393;46.108;3.390;2023-02-17T10:42:33;99387.81;;;12.34;54.88
36502;BME280;25393;46.108;3.390;2023-02-17T10:45:12;99390.47;;;12.61;53.59
36502;BME280;25393;46.108;3.390;2023-02-17T10:47:40;99384.63;;;12.75;53.82
36502;BME280;25393;46.108;3.390;2023-02-17T10:50:17;99367.22;;;12.81;53.01
36502;BME280;25393;46.108;3.390;2023-02-17T10:52:48;99362.06;;;12.79;53.01
36502;BME280;25393;46.108;3.390;2023-02-17T10:55:33;99386.91;;;13.06;53.28
36502;BME280;25393;46.108;3.390;2023-02-17T11:00:53;99384.97;;;13.43;52.83
36502;BME280;25393;46.108;3.390;2023-02-17T11:03:27;99385.53;;;13.55;52.28
36502;BME280;25393;46.108;3.390;2023-02-17T11:05:54;99381.59;;;13.84;51.30
36502;BME280;25393;46.108;3.390;2023-02-17T11:08:30;99378.66;;;13.95;51.53
36502;BME280;25393;46.108;3.390;2023-02-17T11:11:04;99375.91;;;14.13;50.49
36502;BME280;25393;46.108;3.390;2023-02-17T11:13:38;99377.53;;;14.06;51.69
36502;BME280;25393;46.108;3.390;2023-02-17T11:16:05;99366.84;;;13.98;51.87
36502;BME280;25393;46.108;3.390;2023-02-17T11:18:46;99364.88;;;14.00;51.96
36502;BME280;25393;46.108;3.390;2023-02-17T11:21:14;99365.00;;;13.98;52.23
36502;BME280;25393;46.108;3.390;2023-02-17T11:23:59;99358.03;;;14.06;52.38
36502;BME280;25393;46.108;3.390;2023-02-17T11:26:29;99373.06;;;14.15;51.71
36502;BME280;25393;46.108;3.390;2023-02-17T11:29:13;99364.72;;;14.10;52.36
36502;BME280;25393;46.108;3.390;2023-02-17T11:31:41;99368.56;;;14.07;52.42
36502;BME280;25393;46.108;3.390;2023-02-17T11:34:13;99359.34;;;14.01;52.94
36502;BME280;25393;46.108;3.390;2023-02-17T11:36:45;99335.09;;;13.79;53.29
36502;BME280;25393;46.108;3.390;2023-02-17T11:39:22;99340.56;;;13.77;53.73
36502;BME280;25393;46.108;3.390;2023-02-17T11:41:48;99357.22;;;13.79;54.07
36502;BME280;25393;46.108;3.390;2023-02-17T11:44:25;99355.78;;;13.85;53.74
36502;BME280;25393;46.108;3.390;2023-02-17T11:47:07;99343.38;;;13.76;54.29
36502;BME280;25393;46.108;3.390;2023-02-17T11:52:58;99359.41;;;13.84;55.61
36502;BME280;25393;46.108;3.390;2023-02-17T11:55:49;99367.16;;;13.95;54.66
36502;BME280;25393;46.108;3.390;2023-02-17T11:58:40;99362.28;;;13.90;54.61
36502;BME280;25393;46.108;3.390;2023-02-17T12:24:01;99340.06;;;14.49;58.90
36502;BME280;25393;46.108;3.390;2023-02-17T12:26:43;99339.78;;;14.61;59.28
36502;BME280;25393;46.108;3.390;2023-02-17T12:32:22;99331.22;;;14.41;60.23
36502;BME280;25393;46.108;3.390;2023-02-17T12:34:56;99335.00;;;14.30;64.58
36502;BME280;25393;46.108;3.390;2023-02-17T12:37:29;99339.44;;;14.14;72.03
36502;BME280;25393;46.108;3.390;2023-02-17T12:40:02;99330.03;;;14.01;73.65
36502;BME280;25393;46.108;3.390;2023-02-17T12:42:37;99323.94;;;13.83;77.73
36502;BME280;25393;46.108;3.390;2023-02-17T12:45:17;99319.97;;;13.87;76.51
36502;BME280;25393;46.108;3.390;2023-02-17T12:52:57;99329.72;;;13.71;76.09
36502;BME280;25393;46.108;3.390;2023-02-17T12:55:31;99331.84;;;13.67;78.27
36502;BME280;25393;46.108;3.390;2023-02-17T12:58:07;99340.88;;;13.48;82.82
36502;BME280;25393;46.108;3.390;2023-02-17T13:00:43;99338.22;;;13.48;82.95
36502;BME280;25393;46.108;3.390;2023-02-17T13:03:11;99348.72;;;13.50;83.83
36502;BME280;25393;46.108;3.390;2023-02-17T13:08:17;99335.34;;;13.42;85.87
36502;BME280;25393;46.108;3.390;2023-02-17T13:11:07;99338.38;;;13.47;86.99
36502;BME280;25393;46.108;3.390;2023-02-17T13:13:36;99323.13;;;13.57;86.19
36502;BME280;25393;46.108;3.390;2023-02-17T13:16:11;99316.25;;;13.46;85.91
36502;BME280;25393;46.108;3.390;2023-02-17T13:18:44;99329.50;;;13.64;86.22
36502;BME280;25393;46.108;3.390;2023-02-17T13:23:44;99325.03;;;13.65;86.58
36502;BME280;25393;46.108;3.390;2023-02-17T13:28:47;99321.19;;;13.93;85.92
36502;BME280;25393;46.108;3.390;2023-02-17T13:31:20;99302.91;;;14.06;85.14
36502;BME280;25393;46.108;3.390;2023-02-17T13:33:53;99311.13;;;14.21;85.30
36502;BME280;25393;46.108;3.390;2023-02-17T13:36:34;99309.56;;;14.44;85.50
36502;BME280;25393;46.108;3.390;2023-02-17T13:41:58;99310.28;;;14.62;83.89
36502;BME280;25393;46.108;3.390;2023-02-17T13:47:01;99294.38;;;14.44;86.50
36502;BME280;25393;46.108;3.390;2023-02-17T13:49:30;99297.88;;;14.37;87.18
36502;BME280;25393;46.108;3.390;2023-02-17T13:52:21;99285.22;;;14.47;86.57
36502;BME280;25393;46.108;3.390;2023-02-17T13:54:56;99292.41;;;14.71;86.46
36502;BME280;25393;46.108;3.390;2023-02-17T13:57:28;99287.63;;;14.90;85.29
36502;BME280;25393;46.108;3.390;2023-02-17T14:00:18;99286.28;;;15.02;84.32
36502;BME280;25393;46.108;3.390;2023-02-17T14:02:53;99271.94;;;15.04;83.87
36502;BME280;25393;46.108;3.390;2023-02-17T14:05:25;99291.78;;;15.17;82.86
36502;BME280;25393;46.108;3.390;2023-02-17T14:07:58;99264.41;;;15.07;83.58
36502;BME280;25393;46.108;3.390;2023-02-17T14:10:28;99290.78;;;15.18;83.30
36502;BME280;25393;46.108;3.390;2023-02-17T14:12:57;99286.28;;;15.11;82.80
36502;BME280;25393;46.108;3.390;2023-02-17T14:15:27;99284.28;;;14.96;83.89
36502;BME280;25393;46.108;3.390;2023-02-17T14:17:54;99291.28;;;14.97;86.15
36502;BME280;25393;46.108;3.390;2023-02-17T14:20:33;99286.47;;;15.01;85.76
36502;BME280;25393;46.108;3.390;2023-02-17T14:23:04;99281.44;;;14.90;86.11
36502;BME280;25393;46.108;3.390;2023-02-17T14:25:36;99269.97;;;14.23;90.33
36502;BME280;25393;46.108;3.390;2023-02-17T14:28:04;99283.81;;;14.27;92.03
36502;BME280;25393;46.108;3.390;2023-02-17T14:30:42;99263.56;;;14.08;93.20
36502;BME280;25393;46.108;3.390;2023-02-17T14:38:23;99274.22;;;13.66;98.34
36502;BME280;25393;46.108;3.390;2023-02-17T14:40:50;99284.22;;;13.64;99.76
36502;BME280;25393;46.108;3.390;2023-02-17T14:43:18;99281.81;;;13.53;100.00
36502;BME280;25393;46.108;3.390;2023-02-17T14:45:48;99281.66;;;13.55;100.00
36502;BME280;25393;46.108;3.390;2023-02-17T14:48:15;99283.84;;;13.59;100.00
36502;BME280;25393;46.108;3.390;2023-02-17T14:50:41;99277.72;;;13.33;100.00
36502;BME280;25393;46.108;3.390;2023-02-17T14:53:30;99278.94;;;13.46;100.00
36502;BME280;25393;46.108;3.390;2023-02-17T14:58:28;99289.28;;;13.49;100.00